Time;durP1;ratioP1;P1;durP2;ratioP2;P2;SDS_P1;SDS_P2;PMS_P1;PMS_P2;Temp;Humidity;BMP_temperature;BMP_pressure;BME280_temperature;BME280_humidity;BME280_pressure;Samples;Min_cycle;Max_cycle;Signal;HPM_P1;HPM_P2
2020/12/20 00:00:14;;;;;;;14.30;5.10;;;9.20;97.50;;;;;;5017838;28;20205;-68
2020/12/20 00:02:47;;;;;;;9.15;4.72;;;9.20;97.60;;;;;;5020666;28;20053;-67
2020/12/20 00:05:13;;;;;;;10.57;5.10;;;9.30;97.70;;;;;;5002037;28;20069;-67
2020/12/20 00:07:39;;;;;;;8.32;4.35;;;9.20;97.70;;;;;;5016856;28;20067;-66
2020/12/20 00:10:06;;;;;;;9.27;5.07;;;9.20;97.60;;;;;;5012461;28;20075;-67
2020/12/20 00:12:32;;;;;;;10.27;5.18;;;9.20;97.60;;;;;;5012347;28;20073;-66
2020/12/20 00:14:58;;;;;;;8.13;4.50;;;9.20;97.70;;;;;;5011539;28;20456;-67
2020/12/20 00:17:25;;;;;;;12.65;5.35;;;9.20;97.70;;;;;;5011207;28;20057;-67
2020/12/20 00:19:51;;;;;;;13.50;5.13;;;9.20;97.80;;;;;;5016315;28;20069;-67
2020/12/20 00:22:17;;;;;;;9.98;4.90;;;9.20;97.80;;;;;;5012381;28;20084;-68
2020/12/20 00:24:43;;;;;;;12.13;5.30;;;9.20;97.80;;;;;;5016911;28;20128;-67
2020/12/20 00:27:10;;;;;;;8.70;4.35;;;9.20;97.80;;;;;;5006335;28;20480;-67
2020/12/20 00:29:39;;;;;;;12.70;4.88;;;9.30;97.60;;;;;;4994818;28;20121;-66
2020/12/20 00:32:06;;;;;;;9.77;4.80;;;9.30;97.40;;;;;;5012225;28;20125;-67
2020/12/20 00:34:34;;;;;;;13.82;5.95;;;9.40;97.30;;;;;;5008560;28;20042;-67
2020/12/20 00:37:00;;;;;;;11.10;5.15;;;9.30;97.30;;;;;;5015916;28;20506;-67
2020/12/20 00:39:27;;;;;;;12.88;5.45;;;9.30;97.20;;;;;;5002842;28;20137;-67
2020/12/20 00:41:58;;;;;;;10.52;4.93;;;9.40;97.20;;;;;;5007690;28;20630;-67
2020/12/20 00:44:26;;;;;;;11.75;5.65;;;9.40;96.90;;;;;;5010086;28;20338;-67
2020/12/20 00:46:56;;;;;;;15.38;5.50;;;9.40;96.90;;;;;;5009341;28;20046;-67
2020/12/20 00:49:24;;;;;;;10.57;5.50;;;9.40;96.90;;;;;;5010604;28;20686;-67
2020/12/20 00:51:51;;;;;;;12.70;4.80;;;9.40;96.80;;;;;;5006140;28;20041;-67
2020/12/20 00:54:17;;;;;;;11.38;4.40;;;9.40;96.90;;;;;;5008986;28;20077;-67
2020/12/20 00:56:45;;;;;;;10.73;4.95;;;9.40;96.80;;;;;;4999472;28;20051;-67
2020/12/20 00:59:12;;;;;;;14.40;5.85;;;9.50;96.80;;;;;;5003916;28;20104;-67
2020/12/20 01:01:39;;;;;;;18.98;8.35;;;9.50;96.70;;;;;;5006875;28;20099;-67
2020/12/20 01:04:06;;;;;;;15.70;8.75;;;9.50;96.60;;;;;;5005809;28;20090;-66
2020/12/20 01:06:33;;;;;;;16.85;6.88;;;9.50;96.50;;;;;;5023796;28;20073;-67
2020/12/20 01:09:00;;;;;;;11.18;6.38;;;9.50;96.50;;;;;;5009243;28;20069;-66
2020/12/20 01:11:27;;;;;;;12.50;5.70;;;9.40;96.60;;;;;;5009450;28;20042;-67
2020/12/20 01:13:53;;;;;;;11.65;4.60;;;9.40;96.70;;;;;;5001998;28;20562;-66
2020/12/20 01:16:23;;;;;;;8.82;5.55;;;9.40;96.80;;;;;;5004639;28;20129;-67
2020/12/20 01:18:50;;;;;;;13.13;5.90;;;9.40;96.90;;;;;;5007028;28;20481;-67
2020/12/20 01:21:16;;;;;;;12.38;5.30;;;9.40;96.80;;;;;;5008571;28;20096;-67
2020/12/20 01:23:44;;;;;;;13.30;4.97;;;9.40;96.80;;;;;;5009555;28;20081;-67
2020/12/20 01:26:10;;;;;;;10.88;4.93;;;9.40;96.70;;;;;;5009153;28;20518;-67
2020/12/20 01:28:37;;;;;;;10.93;4.97;;;9.40;96.70;;;;;;5000093;28;20517;-67
2020/12/20 01:31:05;;;;;;;10.77;5.18;;;9.50;96.70;;;;;;5002748;28;20054;-67
2020/12/20 01:33:34;;;;;;;11.25;5.43;;;9.50;96.60;;;;;;5008421;28;20128;-67
2020/12/20 01:36:10;;;;;;;9.73;5.32;;;9.50;96.50;;;;;;5008224;28;20436;-68
2020/12/20 01:38:38;;;;;;;10.90;5.20;;;9.50;96.50;;;;;;5008750;28;20077;-67
2020/12/20 01:41:05;;;;;;;10.25;5.47;;;9.50;96.60;;;;;;5008812;28;20092;-67
2020/12/20 01:43:41;;;;;;;11.23;4.68;;;9.50;96.50;;;;;;5006937;28;20057;-67
2020/12/20 01:46:09;;;;;;;13.93;5.13;;;9.50;96.70;;;;;;5008726;28;20081;-67
2020/12/20 01:48:37;;;;;;;8.10;4.88;;;9.50;96.70;;;;;;5005830;28;20108;-67
2020/12/20 01:51:03;;;;;;;10.10;5.25;;;9.50;96.60;;;;;;5009217;28;20053;-67
2020/12/20 01:53:31;;;;;;;12.85;5.90;;;9.50;96.80;;;;;;5005873;28;20085;-67
2020/12/20 01:56:00;;;;;;;10.02;5.15;;;9.50;96.90;;;;;;5006763;28;20308;-67
2020/12/20 01:58:28;;;;;;;9.32;5.35;;;9.50;96.80;;;;;;5008441;28;20413;-66
2020/12/20 02:00:55;;;;;;;11.02;5.63;;;9.50;96.80;;;;;;5004782;28;20394;-66
2020/12/20 02:03:23;;;;;;;12.07;5.93;;;9.40;96.90;;;;;;4993000;28;20474;-67
2020/12/20 02:05:51;;;;;;;11.77;5.07;;;9.40;97.20;;;;;;5007865;28;20539;-67
2020/12/20 02:08:18;;;;;;;9.45;4.97;;;9.30;97.70;;;;;;5009546;28;20385;-67
2020/12/20 02:11:09;;;;;;;12.25;5.13;;;9.40;98.30;;;;;;5005715;28;20041;-66
2020/12/20 02:13:40;;;;;;;9.55;4.97;;;9.40;98.40;;;;;;5008922;28;20415;-67
2020/12/20 02:16:07;;;;;;;9.57;5.18;;;9.40;98.40;;;;;;5005498;28;20133;-67
2020/12/20 02:18:33;;;;;;;13.25;5.10;;;9.40;98.50;;;;;;5008711;28;20096;-67
2020/12/20 02:21:00;;;;;;;11.48;5.43;;;9.40;98.50;;;;;;4996969;28;20094;-66
2020/12/20 02:23:26;;;;;;;15.45;4.25;;;9.40;98.60;;;;;;5007897;28;20081;-67
2020/12/20 02:25:52;;;;;;;9.57;4.90;;;9.40;98.70;;;;;;5006721;28;20407;-67
2020/12/20 02:28:20;;;;;;;11.20;5.43;;;9.40;98.70;;;;;;5003969;28;20132;-67
2020/12/20 02:30:47;;;;;;;9.23;5.03;;;9.40;98.70;;;;;;4997503;28;20043;-66
2020/12/20 02:33:14;;;;;;;9.90;4.75;;;9.40;98.60;;;;;;5010312;28;20042;-67
2020/12/20 02:35:44;;;;;;;9.85;4.90;;;9.40;98.60;;;;;;5010603;28;20100;-68
2020/12/20 02:38:10;;;;;;;8.65;4.60;;;9.40;98.60;;;;;;5010334;28;20271;-67
2020/12/20 02:40:39;;;;;;;13.20;5.25;;;9.40;98.60;;;;;;5009020;28;20493;-67
2020/12/20 02:43:05;;;;;;;7.75;5.10;;;9.30;98.70;;;;;;5013534;28;20459;-66
2020/12/20 02:45:31;;;;;;;13.13;5.47;;;9.30;98.70;;;;;;5009858;28;20541;-66
2020/12/20 02:47:58;;;;;;;10.82;5.80;;;9.30;98.70;;;;;;5018089;28;20121;-67
2020/12/20 02:50:33;;;;;;;13.88;6.35;;;9.30;98.80;;;;;;5010238;28;20061;-67
2020/12/20 02:52:59;;;;;;;9.57;5.25;;;9.30;98.90;;;;;;5010138;28;20136;-66
2020/12/20 02:55:26;;;;;;;13.13;5.85;;;9.20;98.90;;;;;;5019529;28;20130;-66
2020/12/20 02:57:52;;;;;;;9.88;5.25;;;9.20;98.90;;;;;;5012178;28;20133;-67
2020/12/20 03:00:20;;;;;;;14.00;5.93;;;9.20;98.90;;;;;;5020701;28;20541;-66
2020/12/20 03:02:47;;;;;;;11.80;5.72;;;9.20;98.90;;;;;;5014469;28;20386;-68
2020/12/20 03:05:13;;;;;;;10.35;5.57;;;9.20;99.00;;;;;;5013382;28;20137;-69
2020/12/20 03:07:40;;;;;;;9.55;4.95;;;9.30;98.80;;;;;;5008861;28;20169;-68
2020/12/20 03:10:06;;;;;;;12.45;5.72;;;9.30;98.90;;;;;;5006039;28;20129;-68
2020/12/20 03:12:32;;;;;;;11.82;5.60;;;9.30;98.80;;;;;;5008510;28;20080;-68
2020/12/20 03:14:59;;;;;;;10.13;5.32;;;9.30;98.90;;;;;;5014777;28;20042;-68
2020/12/20 03:17:25;;;;;;;14.43;6.15;;;9.30;98.90;;;;;;5008594;28;20180;-68
2020/12/20 03:19:52;;;;;;;12.02;5.50;;;9.30;98.80;;;;;;5009338;28;20056;-68
2020/12/20 03:22:18;;;;;;;13.50;5.45;;;9.30;98.90;;;;;;5008675;28;20584;-68
2020/12/20 03:24:44;;;;;;;10.38;5.35;;;9.20;98.90;;;;;;5016733;28;20065;-68
2020/12/20 03:27:11;;;;;;;10.82;5.20;;;9.20;98.90;;;;;;5008644;28;20141;-68
2020/12/20 03:29:37;;;;;;;11.63;5.43;;;9.20;99.10;;;;;;5019262;28;20132;-68
2020/12/20 03:32:03;;;;;;;9.80;4.97;;;9.20;99.10;;;;;;5008009;28;20050;-68
2020/12/20 03:34:30;;;;;;;9.85;5.30;;;9.20;99.10;;;;;;5001966;28;20224;-67
2020/12/20 03:36:56;;;;;;;10.45;5.97;;;9.20;99.30;;;;;;5007126;28;20050;-68
2020/12/20 03:39:23;;;;;;;15.45;5.65;;;9.20;99.20;;;;;;5012463;28;20498;-68
2020/12/20 03:41:49;;;;;;;14.38;5.85;;;9.20;99.40;;;;;;5012055;28;20155;-68
2020/12/20 03:44:15;;;;;;;12.07;6.30;;;9.20;99.40;;;;;;5012452;28;20073;-68
2020/12/20 03:46:42;;;;;;;10.00;6.13;;;9.20;99.00;;;;;;5018201;28;20073;-68
2020/12/20 03:49:09;;;;;;;13.20;5.43;;;9.20;99.10;;;;;;5014618;28;20069;-68
2020/12/20 03:51:35;;;;;;;14.02;5.65;;;9.20;99.10;;;;;;5023712;28;20136;-69
2020/12/20 03:54:03;;;;;;;12.13;6.28;;;9.20;99.20;;;;;;5024697;28;20430;-68
2020/12/20 03:56:30;;;;;;;10.35;5.63;;;9.10;99.20;;;;;;5020056;28;20489;-69
2020/12/20 03:58:57;;;;;;;10.40;5.60;;;9.20;99.10;;;;;;5011833;28;20223;-68
2020/12/20 04:01:23;;;;;;;9.85;5.75;;;9.20;99.10;;;;;;5014826;28;20137;-68
2020/12/20 04:03:49;;;;;;;13.40;6.15;;;9.20;99.00;;;;;;5019193;28;20054;-68
2020/12/20 04:06:16;;;;;;;11.63;6.28;;;9.10;99.10;;;;;;5031825;28;20072;-68
2020/12/20 04:08:42;;;;;;;10.43;5.38;;;9.20;99.20;;;;;;5010808;28;20360;-68
2020/12/20 04:11:09;;;;;;;9.90;5.78;;;9.20;99.20;;;;;;5011870;28;20514;-68
2020/12/20 04:13:35;;;;;;;11.00;7.00;;;9.20;99.30;;;;;;5014367;28;20060;-68
2020/12/20 04:16:07;;;;;;;10.35;5.55;;;9.10;99.40;;;;;;4996674;28;20392;-68
2020/12/20 04:18:34;;;;;;;13.80;7.40;;;9.10;99.60;;;;;;5009380;28;20053;-68
2020/12/20 04:21:01;;;;;;;11.85;7.38;;;9.10;99.60;;;;;;5021226;28;20136;-68
2020/12/20 04:23:27;;;;;;;16.08;6.95;;;9.10;99.60;;;;;;5019317;28;20479;-68
2020/12/20 04:25:54;;;;;;;14.32;7.65;;;9.20;99.60;;;;;;5010507;28;20564;-69
2020/12/20 04:28:20;;;;;;;10.73;6.00;;;9.20;99.50;;;;;;5010633;28;20513;-68
2020/12/20 04:30:47;;;;;;;14.73;7.60;;;9.20;99.60;;;;;;5011941;28;20057;-68
2020/12/20 04:33:14;;;;;;;15.13;7.00;;;9.20;99.60;;;;;;5010822;28;20037;-68
2020/12/20 04:35:40;;;;;;;19.92;7.82;;;9.20;99.60;;;;;;5011137;28;20455;-68
2020/12/20 04:38:06;;;;;;;15.23;7.18;;;9.20;99.60;;;;;;5018088;28;20054;-68
2020/12/20 04:40:33;;;;;;;21.80;9.18;;;9.20;99.60;;;;;;5014681;28;20050;-68
2020/12/20 04:43:14;;;;;;;14.75;7.32;;;9.10;99.50;;;;;;5010885;28;20475;-69
2020/12/20 04:45:43;;;;;;;15.23;8.02;;;9.10;99.60;;;;;;5008114;28;20180;-68
2020/12/20 04:48:11;;;;;;;19.95;8.02;;;9.20;99.60;;;;;;5009398;28;20053;-68
2020/12/20 04:50:39;;;;;;;13.95;9.00;;;9.20;99.60;;;;;;5025561;28;20080;-68
2020/12/20 04:53:06;;;;;;;13.30;7.60;;;9.10;99.60;;;;;;5025213;28;20048;-68
2020/12/20 04:55:32;;;;;;;14.77;7.80;;;9.20;99.60;;;;;;4998088;28;20124;-68
2020/12/20 04:57:59;;;;;;;15.88;7.78;;;9.10;99.60;;;;;;5011943;28;20050;-68
2020/12/20 05:00:25;;;;;;;13.95;7.47;;;9.20;99.60;;;;;;5008711;28;20068;-68
2020/12/20 05:02:52;;;;;;;12.38;7.75;;;9.10;99.80;;;;;;5014069;28;20129;-68
2020/12/20 05:05:19;;;;;;;13.70;8.35;;;9.10;99.60;;;;;;5009494;28;20515;-68
2020/12/20 05:07:45;;;;;;;14.20;8.30;;;9.10;99.60;;;;;;5028662;28;20089;-68
2020/12/20 05:10:11;;;;;;;15.98;8.13;;;9.10;99.70;;;;;;5012385;28;20132;-68
2020/12/20 05:12:38;;;;;;;16.27;7.82;;;9.10;99.70;;;;;;5010758;28;20100;-68
2020/12/20 05:15:21;;;;;;;18.55;9.05;;;9.10;99.70;;;;;;5010292;28;20080;-68
2020/12/20 05:17:48;;;;;;;20.63;9.82;;;9.10;99.80;;;;;;5009814;28;20099;-68
2020/12/20 05:20:37;;;;;;;16.17;9.88;;;9.10;99.70;;;;;;5021426;28;20147;-68
2020/12/20 05:23:05;;;;;;;13.25;7.65;;;9.10;99.70;;;;;;5013358;28;20042;-68
2020/12/20 05:25:32;;;;;;;15.82;9.93;;;9.10;99.70;;;;;;5009864;28;20080;-68
2020/12/20 05:28:21;;;;;;;18.20;9.95;;;9.10;99.80;;;;;;5012173;28;20204;-68
2020/12/20 05:30:48;;;;;;;15.65;9.15;;;9.00;99.80;;;;;;5008815;28;20070;-69
2020/12/20 05:33:28;;;;;;;14.75;9.93;;;9.10;99.80;;;;;;5021127;28;20080;-68
2020/12/20 05:36:04;;;;;;;16.25;9.43;;;9.10;99.90;;;;;;5021755;28;20096;-68
2020/12/20 05:38:32;;;;;;;21.42;10.73;;;9.00;99.90;;;;;;5009546;28;20161;-68
2020/12/20 05:40:59;;;;;;;15.20;8.95;;;9.00;99.90;;;;;;5014981;28;20049;-68
2020/12/20 05:43:27;;;;;;;19.08;10.32;;;9.10;99.90;;;;;;5010727;28;20392;-68
2020/12/20 05:45:54;;;;;;;16.08;10.85;;;9.00;99.80;;;;;;5009743;28;20046;-68
2020/12/20 05:48:24;;;;;;;17.42;10.65;;;9.00;99.90;;;;;;5021508;28;20136;-68
2020/12/20 05:50:55;;;;;;;13.88;9.73;;;9.00;99.90;;;;;;5014952;28;20134;-68
2020/12/20 05:53:29;;;;;;;18.77;10.95;;;9.00;99.90;;;;;;5019918;28;20050;-67
2020/12/20 05:55:57;;;;;;;18.25;10.60;;;9.00;99.90;;;;;;5015910;28;20509;-67
2020/12/20 05:58:28;;;;;;;18.10;11.65;;;9.00;99.90;;;;;;5021032;28;20084;-67
2020/12/20 06:00:56;;;;;;;21.85;9.82;;;9.00;99.90;;;;;;5017823;28;20041;-67
2020/12/20 06:03:23;;;;;;;17.50;11.05;;;9.10;99.90;;;;;;5027695;28;20151;-67
2020/12/20 06:05:50;;;;;;;17.52;10.65;;;9.10;99.90;;;;;;5019633;28;20533;-67
2020/12/20 06:08:18;;;;;;;15.95;11.18;;;9.10;99.90;;;;;;5021028;28;20073;-67
2020/12/20 06:10:51;;;;;;;19.20;11.70;;;9.00;99.90;;;;;;5012333;28;20394;-67
2020/12/20 06:13:22;;;;;;;14.68;10.00;;;9.10;99.90;;;;;;5010389;28;20129;-67
2020/12/20 06:15:56;;;;;;;17.88;10.88;;;9.00;99.90;;;;;;5010750;28;20178;-67
2020/12/20 06:18:25;;;;;;;15.02;10.18;;;9.00;99.90;;;;;;5014458;28;20107;-67
2020/12/20 06:20:53;;;;;;;17.58;11.93;;;9.00;99.90;;;;;;5019280;28;20107;-67
2020/12/20 06:23:22;;;;;;;14.63;8.85;;;9.00;99.90;;;;;;5010457;28;20082;-67
2020/12/20 06:25:49;;;;;;;16.90;11.10;;;9.10;99.90;;;;;;5007013;28;20377;-67
2020/12/20 06:28:18;;;;;;;14.57;9.95;;;9.10;99.90;;;;;;5021786;28;20137;-67
2020/12/20 06:30:46;;;;;;;15.95;10.82;;;9.10;99.90;;;;;;5017547;28;20042;-67
2020/12/20 06:33:35;;;;;;;15.50;9.40;;;9.10;99.90;;;;;;5027542;28;20104;-67
2020/12/20 06:36:03;;;;;;;15.20;10.32;;;9.00;99.90;;;;;;5010371;28;20142;-67
2020/12/20 06:38:29;;;;;;;18.98;13.18;;;9.00;99.90;;;;;;5020253;28;20084;-67
2020/12/20 06:40:56;;;;;;;13.95;9.88;;;9.10;99.90;;;;;;5016450;28;20060;-67
2020/12/20 06:43:36;;;;;;;16.92;12.60;;;9.00;99.90;;;;;;5008539;28;20057;-67
2020/12/20 06:46:05;;;;;;;14.75;10.60;;;9.00;99.90;;;;;;5020366;28;20049;-68
2020/12/20 06:48:36;;;;;;;14.18;9.25;;;9.00;99.90;;;;;;5023562;28;20140;-67
2020/12/20 06:51:07;;;;;;;15.73;10.48;;;9.00;99.90;;;;;;5013134;28;20050;-67
2020/12/20 06:53:47;;;;;;;17.15;11.02;;;9.00;99.90;;;;;;5010440;28;20132;-67
2020/12/20 06:56:16;;;;;;;14.95;10.85;;;9.00;99.90;;;;;;5016088;28;20059;-68
2020/12/20 06:58:43;;;;;;;12.75;9.35;;;9.00;99.90;;;;;;5021964;28;20049;-68
2020/12/20 07:01:09;;;;;;;17.40;12.85;;;9.00;99.90;;;;;;5014749;28;20124;-68
2020/12/20 07:03:38;;;;;;;16.83;12.20;;;9.00;99.90;;;;;;5027442;28;20132;-68
2020/12/20 07:06:07;;;;;;;18.65;11.77;;;9.00;99.90;;;;;;5012534;28;20073;-67
2020/12/20 07:09:05;;;;;;;13.57;10.35;;;9.00;99.90;;;;;;5007265;28;20133;-67
2020/12/20 07:11:44;;;;;;;15.95;10.73;;;9.00;99.90;;;;;;5021485;28;20046;-68
2020/12/20 07:14:22;;;;;;;21.60;14.57;;;8.90;99.90;;;;;;5025173;28;20046;-67
2020/12/20 07:16:49;;;;;;;19.73;12.63;;;8.90;99.90;;;;;;5024211;28;20280;-67
2020/12/20 07:19:26;;;;;;;19.58;11.43;;;9.00;99.90;;;;;;5031046;28;20084;-68
2020/12/20 07:21:52;;;;;;;13.65;10.13;;;9.00;99.90;;;;;;5024864;28;20133;-67
2020/12/20 07:24:21;;;;;;;14.57;9.95;;;8.90;99.90;;;;;;5017669;28;20502;-67
2020/12/20 07:26:49;;;;;;;17.58;10.77;;;8.90;99.90;;;;;;5017185;28;20104;-68
2020/12/20 07:29:16;;;;;;;18.25;11.82;;;8.90;99.90;;;;;;5000037;28;20045;-68
2020/12/20 07:31:50;;;;;;;16.17;9.18;;;9.00;99.90;;;;;;5019184;28;20501;-68
2020/12/20 07:34:16;;;;;;;16.83;9.32;;;8.90;99.90;;;;;;5004389;28;20041;-67
2020/12/20 07:36:43;;;;;;;15.38;10.88;;;8.90;99.90;;;;;;5012553;28;20505;-67
2020/12/20 07:39:11;;;;;;;15.45;10.13;;;8.90;99.90;;;;;;5028924;28;20103;-67
2020/12/20 07:41:37;;;;;;;14.50;10.80;;;8.90;99.90;;;;;;5021711;28;20138;-67
2020/12/20 07:44:08;;;;;;;15.50;10.07;;;8.90;99.90;;;;;;5017372;28;20140;-68
2020/12/20 07:46:35;;;;;;;16.00;9.43;;;8.90;99.90;;;;;;5009545;28;20132;-67
2020/12/20 07:49:08;;;;;;;17.27;10.80;;;8.90;99.90;;;;;;5024338;28;20149;-67
2020/12/20 07:51:36;;;;;;;16.55;9.55;;;8.90;99.90;;;;;;5026219;28;20049;-67
2020/12/20 07:54:10;;;;;;;16.73;11.57;;;8.90;99.90;;;;;;5022791;28;20441;-68
2020/12/20 07:56:43;;;;;;;17.98;11.85;;;8.90;99.90;;;;;;5011849;28;20077;-67
2020/12/20 07:59:10;;;;;;;16.25;9.65;;;8.90;99.90;;;;;;5026319;28;20510;-68
2020/12/20 08:01:38;;;;;;;15.18;9.80;;;9.00;99.90;;;;;;5017161;28;20530;-67
2020/12/20 08:04:24;;;;;;;17.88;11.10;;;8.90;99.90;;;;;;5014454;28;20081;-67
2020/12/20 08:06:51;;;;;;;14.68;9.05;;;8.90;99.90;;;;;;5005147;28;20528;-67
2020/12/20 08:09:22;;;;;;;16.25;10.63;;;8.90;99.90;;;;;;5019069;28;20045;-68
2020/12/20 08:11:50;;;;;;;17.55;10.63;;;8.90;99.90;;;;;;5026985;28;20045;-67
2020/12/20 08:14:19;;;;;;;21.50;13.15;;;8.90;99.90;;;;;;5025627;28;20133;-68
2020/12/20 08:16:47;;;;;;;17.38;11.18;;;9.00;99.90;;;;;;5013528;28;20054;-67
2020/12/20 08:19:28;;;;;;;18.60;11.32;;;9.00;99.90;;;;;;5012562;28;20140;-68
2020/12/20 08:22:15;;;;;;;20.05;11.70;;;9.00;99.90;;;;;;5021826;28;20426;-67
2020/12/20 08:24:43;;;;;;;15.10;9.40;;;9.10;99.60;;;;;;5017739;28;20047;-67
2020/12/20 08:27:26;;;;;;;17.77;11.20;;;9.00;99.50;;;;;;5017507;28;20117;-67
2020/12/20 08:29:57;;;;;;;13.75;9.00;;;9.00;99.40;;;;;;5009266;28;20077;-67
2020/12/20 08:32:34;;;;;;;19.33;11.38;;;9.10;99.60;;;;;;5029906;28;20068;-67
2020/12/20 08:35:23;;;;;;;16.67;10.98;;;9.10;99.40;;;;;;5021605;28;20049;-68
2020/12/20 08:38:00;;;;;;;14.10;8.38;;;9.20;99.30;;;;;;5012759;28;20046;-68
2020/12/20 08:40:34;;;;;;;14.65;9.40;;;9.20;99.20;;;;;;5017065;28;20141;-67
2020/12/20 08:43:01;;;;;;;14.90;9.02;;;9.20;99.30;;;;;;5022361;28;20136;-68
2020/12/20 08:45:30;;;;;;;18.13;10.25;;;9.30;99.00;;;;;;5011666;28;20514;-67
2020/12/20 08:48:04;;;;;;;14.07;8.68;;;9.40;98.70;;;;;;5029308;28;20136;-68
2020/12/20 08:50:31;;;;;;;12.73;8.50;;;9.30;98.60;;;;;;5023559;28;20053;-68
2020/12/20 08:53:04;;;;;;;16.33;9.43;;;9.40;98.50;;;;;;5015992;28;20688;-67
2020/12/20 08:55:30;;;;;;;16.10;8.70;;;9.30;98.80;;;;;;5025400;28;20143;-68
2020/12/20 08:58:04;;;;;;;18.10;9.88;;;9.30;98.60;;;;;;5021608;28;20503;-68
2020/12/20 09:00:31;;;;;;;13.85;7.95;;;9.20;98.80;;;;;;5019414;28;20142;-67
2020/12/20 09:02:59;;;;;;;19.30;10.77;;;9.20;98.90;;;;;;5021257;28;20553;-68
2020/12/20 09:05:28;;;;;;;10.68;7.57;;;9.20;99.10;;;;;;5011199;28;20138;-68
2020/12/20 09:07:55;;;;;;;15.63;9.05;;;9.10;98.70;;;;;;5013705;28;20145;-68
2020/12/20 09:10:28;;;;;;;16.33;9.10;;;9.10;98.90;;;;;;5012584;28;20046;-67
2020/12/20 09:12:57;;;;;;;19.25;11.65;;;9.10;99.00;;;;;;5016386;28;20049;-68
2020/12/20 09:15:34;;;;;;;16.75;10.05;;;9.20;98.90;;;;;;5010592;28;20076;-68
2020/12/20 09:18:21;;;;;;;15.02;9.43;;;9.20;98.90;;;;;;5030464;28;20053;-67
2020/12/20 09:20:49;;;;;;;13.00;8.75;;;9.30;98.80;;;;;;5012376;28;20053;-67
2020/12/20 09:23:19;;;;;;;13.13;9.70;;;9.30;98.90;;;;;;5020254;28;20431;-68
2020/12/20 09:25:46;;;;;;;16.30;9.23;;;9.30;99.00;;;;;;5013777;28;20091;-68
2020/12/20 09:28:25;;;;;;;19.63;11.18;;;9.40;99.30;;;;;;5015609;28;20125;-68
2020/12/20 09:30:56;;;;;;;18.70;9.35;;;9.40;98.80;;;;;;5010210;28;20050;-67
2020/12/20 09:33:27;;;;;;;14.90;9.00;;;9.50;98.70;;;;;;5022868;28;20069;-67
2020/12/20 09:36:04;;;;;;;14.45;8.73;;;9.50;98.60;;;;;;5012420;28;20630;-67
2020/12/20 09:38:50;;;;;;;17.70;9.55;;;9.60;98.50;;;;;;5005809;28;20451;-67
2020/12/20 09:41:19;;;;;;;17.38;9.43;;;9.60;98.40;;;;;;4996112;28;20041;-66
2020/12/20 09:43:46;;;;;;;16.52;10.35;;;9.50;98.90;;;;;;5022487;28;20522;-66
2020/12/20 09:46:21;;;;;;;14.48;9.80;;;9.50;98.80;;;;;;5010173;28;20360;-67
2020/12/20 09:48:49;;;;;;;20.80;11.07;;;9.60;98.60;;;;;;5014467;28;20152;-67
2020/12/20 09:51:17;;;;;;;17.35;10.85;;;9.60;98.60;;;;;;5018214;28;20120;-67
2020/12/20 09:53:43;;;;;;;16.88;10.48;;;9.60;98.40;;;;;;5007067;28;20356;-67
2020/12/20 09:56:09;;;;;;;23.05;11.93;;;9.60;98.70;;;;;;5015636;28;20140;-67
2020/12/20 09:58:36;;;;;;;23.92;11.50;;;9.60;98.60;;;;;;5003629;28;20133;-67
2020/12/20 10:01:03;;;;;;;19.42;10.32;;;9.60;98.60;;;;;;5007823;28;20085;-67
2020/12/20 10:03:29;;;;;;;19.20;12.00;;;9.70;97.90;;;;;;5008617;28;20097;-67
2020/12/20 10:05:59;;;;;;;15.68;9.68;;;9.80;97.90;;;;;;5011919;28;20140;-67
2020/12/20 10:08:27;;;;;;;17.60;9.98;;;9.70;97.90;;;;;;5003747;28;20060;-67
2020/12/20 10:10:55;;;;;;;17.45;9.73;;;9.70;98.10;;;;;;5006717;28;20042;-67
2020/12/20 10:13:22;;;;;;;17.15;10.05;;;9.70;97.90;;;;;;5004708;28;20068;-67
2020/12/20 10:15:48;;;;;;;20.17;11.00;;;9.70;97.90;;;;;;4999732;28;20162;-67
2020/12/20 10:18:15;;;;;;;17.00;9.70;;;9.70;98.00;;;;;;4997638;28;20050;-67
2020/12/20 10:20:41;;;;;;;16.23;10.00;;;9.80;97.50;;;;;;5009284;28;20157;-67
2020/12/20 10:23:07;;;;;;;14.05;8.35;;;9.70;97.70;;;;;;4998596;28;20165;-67
2020/12/20 10:25:34;;;;;;;14.90;8.85;;;9.80;97.90;;;;;;5000322;28;20137;-67
2020/12/20 10:28:00;;;;;;;17.92;9.13;;;9.80;97.50;;;;;;5011099;28;20081;-67
2020/12/20 10:30:27;;;;;;;12.77;7.75;;;9.70;97.60;;;;;;5010162;28;20056;-68
2020/12/20 10:32:57;;;;;;;14.25;8.63;;;9.70;97.50;;;;;;5012483;28;20116;-67
2020/12/20 10:35:23;;;;;;;17.02;9.60;;;9.70;97.60;;;;;;4998892;28;20137;-67
2020/12/20 10:37:57;;;;;;;17.13;9.93;;;9.80;97.60;;;;;;5017039;28;20116;-67
2020/12/20 10:40:25;;;;;;;20.20;9.70;;;9.90;97.40;;;;;;5004544;28;20458;-67
2020/12/20 10:42:52;;;;;;;13.63;7.25;;;9.90;97.20;;;;;;5013416;28;20089;-67
2020/12/20 10:45:19;;;;;;;19.80;9.82;;;9.90;96.90;;;;;;5006691;28;20132;-67
2020/12/20 10:47:45;;;;;;;17.20;10.07;;;9.80;97.10;;;;;;5005261;28;20085;-67
2020/12/20 10:50:12;;;;;;;16.20;8.68;;;9.80;97.10;;;;;;5014155;28;20049;-67
2020/12/20 10:52:40;;;;;;;15.32;8.10;;;9.90;97.30;;;;;;5007054;28;20049;-67
2020/12/20 10:55:08;;;;;;;14.77;8.15;;;9.90;96.90;;;;;;5002920;28;20042;-68
2020/12/20 10:57:34;;;;;;;13.68;7.07;;;9.90;96.90;;;;;;5002366;28;20049;-67
2020/12/20 11:00:01;;;;;;;15.93;7.32;;;9.80;96.80;;;;;;5012155;28;20132;-67
2020/12/20 11:02:28;;;;;;;17.17;9.73;;;9.80;96.70;;;;;;5007802;28;20153;-68
2020/12/20 11:04:54;;;;;;;18.05;9.30;;;9.90;97.00;;;;;;4999454;28;20154;-67
2020/12/20 11:07:20;;;;;;;11.23;6.53;;;9.80;97.00;;;;;;5007252;28;20118;-67
2020/12/20 11:09:47;;;;;;;21.60;8.00;;;9.70;97.00;;;;;;5014162;28;20041;-67
2020/12/20 11:12:13;;;;;;;18.98;9.13;;;9.70;97.20;;;;;;5009979;28;20077;-68
2020/12/20 11:14:39;;;;;;;10.20;7.22;;;9.70;96.90;;;;;;5008321;28;20486;-68
2020/12/20 11:17:06;;;;;;;14.32;7.63;;;9.70;96.40;;;;;;5008472;28;20049;-67
2020/12/20 11:19:32;;;;;;;19.02;7.72;;;9.70;96.90;;;;;;5011720;28;20137;-67
2020/12/20 11:21:59;;;;;;;12.73;6.25;;;9.60;97.00;;;;;;5011269;28;20058;-67
2020/12/20 11:24:26;;;;;;;16.42;8.63;;;9.60;97.00;;;;;;5006683;28;20124;-67
2020/12/20 11:26:53;;;;;;;13.32;5.68;;;9.70;97.20;;;;;;5007720;28;20399;-67
2020/12/20 11:29:20;;;;;;;11.20;6.07;;;9.70;96.40;;;;;;5016162;28;20104;-67
2020/12/20 11:31:47;;;;;;;15.52;7.32;;;9.80;96.50;;;;;;5007936;28;20148;-67
2020/12/20 11:34:15;;;;;;;16.20;7.13;;;9.80;96.50;;;;;;5013531;28;20494;-67
2020/12/20 11:36:42;;;;;;;11.40;6.18;;;9.80;96.70;;;;;;5014831;28;20458;-67
2020/12/20 11:39:11;;;;;;;13.38;6.07;;;9.70;96.40;;;;;;5012313;28;20463;-67
2020/12/20 11:41:39;;;;;;;14.80;6.47;;;9.70;96.40;;;;;;5002090;28;20053;-68
2020/12/20 11:44:05;;;;;;;14.48;6.63;;;9.70;96.30;;;;;;5003223;28;20092;-67
2020/12/20 11:46:32;;;;;;;12.00;5.07;;;9.80;96.00;;;;;;5005954;28;20331;-67
2020/12/20 11:48:59;;;;;;;11.88;5.75;;;9.70;96.00;;;;;;5001912;28;20058;-68
2020/12/20 11:51:27;;;;;;;11.20;5.82;;;9.60;96.30;;;;;;5002752;28;20041;-67
2020/12/20 11:53:55;;;;;;;8.57;5.32;;;9.60;96.30;;;;;;5004218;28;20096;-68
2020/12/20 11:56:21;;;;;;;10.80;6.47;;;9.70;96.40;;;;;;5007294;28;20073;-67
2020/12/20 11:58:49;;;;;;;17.95;8.10;;;9.70;96.20;;;;;;5009330;28;20367;-67
2020/12/20 12:01:26;;;;;;;15.63;8.15;;;9.90;96.20;;;;;;5007793;28;20107;-66
2020/12/20 12:03:52;;;;;;;11.63;6.45;;;9.90;96.10;;;;;;5002754;28;20316;-67
2020/12/20 12:06:18;;;;;;;13.35;6.45;;;9.80;96.10;;;;;;5006064;28;20414;-67
2020/12/20 12:08:45;;;;;;;14.70;7.07;;;9.80;96.10;;;;;;5008579;28;20513;-67
2020/12/20 12:11:19;;;;;;;12.90;6.72;;;9.80;96.30;;;;;;5008605;28;20494;-67
2020/12/20 12:13:46;;;;;;;12.50;6.28;;;9.80;96.10;;;;;;4995503;28;20223;-67
2020/12/20 12:16:16;;;;;;;12.65;6.22;;;10.00;95.50;;;;;;5005046;28;20129;-67
2020/12/20 12:18:42;;;;;;;14.70;7.70;;;10.00;95.40;;;;;;5008882;28;20049;-67
2020/12/20 12:21:16;;;;;;;12.63;6.53;;;9.90;96.00;;;;;;5007194;28;20042;-66
2020/12/20 12:23:46;;;;;;;10.55;4.63;;;10.00;95.90;;;;;;5007476;28;20081;-66
2020/12/20 12:26:30;;;;;;;14.82;7.10;;;9.90;95.30;;;;;;5009401;28;20165;-68
2020/12/20 12:28:57;;;;;;;14.77;7.22;;;9.80;95.70;;;;;;5009985;28;20088;-67
2020/12/20 12:31:23;;;;;;;10.65;4.57;;;9.80;95.80;;;;;;5009580;28;20077;-66
2020/12/20 12:33:49;;;;;;;7.82;5.00;;;9.70;95.60;;;;;;5009107;28;20073;-67
2020/12/20 12:36:16;;;;;;;13.50;5.80;;;9.70;95.90;;;;;;5001083;28;20088;-66
2020/12/20 12:38:42;;;;;;;16.20;6.88;;;9.70;95.70;;;;;;5008830;28;20133;-66
2020/12/20 12:41:08;;;;;;;12.73;6.38;;;9.80;95.70;;;;;;5009607;28;20096;-67
2020/12/20 12:43:35;;;;;;;9.80;4.53;;;9.70;95.80;;;;;;5009860;28;20121;-66
2020/12/20 12:46:01;;;;;;;10.65;4.88;;;9.80;95.30;;;;;;5008472;28;20144;-67
2020/12/20 12:48:27;;;;;;;10.65;5.32;;;9.80;95.50;;;;;;5007689;28;20151;-67
2020/12/20 12:50:54;;;;;;;13.73;7.13;;;9.80;95.60;;;;;;5006580;28;20209;-66
2020/12/20 12:53:20;;;;;;;11.60;7.00;;;9.80;95.90;;;;;;5003421;28;20483;-67